sensor_id;sensor_type;location;lat;lon;timestamp;pressure;altitude;pressure_sealevel;temperature;humidity
17230;BME280;8731;50.364;8.958;2023-02-23T00:03:54;99741.16;;;8.61;85.85
17230;BME280;8731;50.364;8.958;2023-02-23T00:08:19;99740.53;;;8.64;86.10
17230;BME280;8731;50.364;8.958;2023-02-23T00:12:42;99732.44;;;8.68;85.70
17230;BME280;8731;50.364;8.958;2023-02-23T00:17:05;99734.91;;;8.49;86.84
17230;BME280;8731;50.364;8.958;2023-02-23T00:21:33;99732.16;;;8.65;86.82
17230;BME280;8731;50.364;8.958;2023-02-23T00:25:56;99733.34;;;8.69;86.67
17230;BME280;8731;50.364;8.958;2023-02-23T00:30:19;99738.69;;;8.72;86.73
17230;BME280;8731;50.364;8.958;2023-02-23T00:34:44;99727.94;;;8.74;86.80
17230;BME280;8731;50.364;8.958;2023-02-23T00:39:10;99734.47;;;8.81;86.62
17230;BME280;8731;50.364;8.958;2023-02-23T00:43:43;99736.53;;;8.85;86.68
17230;BME280;8731;50.364;8.958;2023-02-23T00:48:06;99736.81;;;8.88;86.66
17230;BME280;8731;50.364;8.958;2023-02-23T00:52:30;99728.72;;;8.92;86.34
17230;BME280;8731;50.364;8.958;2023-02-23T00:56:56;99730.50;;;8.93;87.11
17230;BME280;8731;50.364;8.958;2023-02-23T01:01:20;99727.34;;;8.96;87.20
17230;BME280;8731;50.364;8.958;2023-02-23T01:05:44;99723.63;;;9.01;87.10
17230;BME280;8731;50.364;8.958;2023-02-23T01:10:09;99728.97;;;9.04;87.09
17230;BME280;8731;50.364;8.958;2023-02-23T01:14:41;99726.84;;;9.08;86.98
17230;BME280;8731;50.364;8.958;2023-02-23T01:19:05;99729.38;;;9.08;87.66
17230;BME280;8731;50.364;8.958;2023-02-23T01:23:28;99727.13;;;9.11;87.31
17230;BME280;8731;50.364;8.958;2023-02-23T01:27:50;99722.59;;;9.17;86.93
17230;BME280;8731;50.364;8.958;2023-02-23T01:32:13;99724.63;;;9.21;86.83
17230;BME280;8731;50.364;8.958;2023-02-23T01:36:38;99722.41;;;9.25;87.33
17230;BME280;8731;50.364;8.958;2023-02-23T01:41:02;99719.88;;;9.25;87.23
17230;BME280;8731;50.364;8.958;2023-02-23T01:45:31;99720.13;;;9.28;87.26
17230;BME280;8731;50.364;8.958;2023-02-23T01:49:54;99713.53;;;9.30;86.91
17230;BME280;8731;50.364;8.958;2023-02-23T01:54:21;99718.91;;;9.33;87.00
17230;BME280;8731;50.364;8.958;2023-02-23T01:58:52;99719.91;;;9.35;86.74
17230;BME280;8731;50.364;8.958;2023-02-23T02:03:23;99719.44;;;9.39;86.84
17230;BME280;8731;50.364;8.958;2023-02-23T02:07:49;99714.34;;;9.39;86.85
17230;BME280;8731;50.364;8.958;2023-02-23T02:12:19;99716.13;;;9.40;86.90
17230;BME280;8731;50.364;8.958;2023-02-23T02:16:52;99716.41;;;9.43;86.85
17230;BME280;8731;50.364;8.958;2023-02-23T02:22:03;99711.06;;;9.40;87.05
17230;BME280;8731;50.364;8.958;2023-02-23T02:26:50;99699.50;;;9.43;87.36
17230;BME280;8731;50.364;8.958;2023-02-23T02:36:51;99704.81;;;9.36;88.33
17230;BME280;8731;50.364;8.958;2023-02-23T02:41:42;99709.00;;;9.36;88.22
17230;BME280;8731;50.364;8.958;2023-02-23T02:46:16;99700.34;;;9.34;88.46
17230;BME280;8731;50.364;8.958;2023-02-23T02:50:45;99697.06;;;9.35;88.16
17230;BME280;8731;50.364;8.958;2023-02-23T02:55:14;99693.63;;;9.34;88.34
17230;BME280;8731;50.364;8.958;2023-02-23T02:59:45;99691.72;;;9.32;88.03
17230;BME280;8731;50.364;8.958;2023-02-23T03:04:26;99689.78;;;9.29;88.27
17230;BME280;8731;50.364;8.958;2023-02-23T03:09:15;99687.53;;;9.32;88.14
17230;BME280;8731;50.364;8.958;2023-02-23T03:14:16;99676.19;;;9.29;88.34
17230;BME280;8731;50.364;8.958;2023-02-23T03:19:12;99687.53;;;9.32;88.43
17230;BME280;8731;50.364;8.958;2023-02-23T03:24:02;99689.94;;;9.31;88.74
17230;BME280;8731;50.364;8.958;2023-02-23T03:28:55;99685.66;;;9.21;89.49
17230;BME280;8731;50.364;8.958;2023-02-23T03:33:48;99686.34;;;9.29;89.45
17230;BME280;8731;50.364;8.958;2023-02-23T03:38:37;99689.31;;;9.33;89.14
17230;BME280;8731;50.364;8.958;2023-02-23T03:43:24;99697.06;;;9.35;89.03
17230;BME280;8731;50.364;8.958;2023-02-23T03:48:09;99698.09;;;9.37;89.11
17230;BME280;8731;50.364;8.958;2023-02-23T03:52:55;99697.34;;;9.38;89.29
17230;BME280;8731;50.364;8.958;2023-02-23T03:57:40;99707.75;;;9.41;88.92
17230;BME280;8731;50.364;8.958;2023-02-23T04:02:25;99702.13;;;9.35;89.92
17230;BME280;8731;50.364;8.958;2023-02-23T04:07:07;99701.25;;;9.34;90.23
17230;BME280;8731;50.364;8.958;2023-02-23T04:11:52;99708.13;;;9.35;90.14
17230;BME280;8731;50.364;8.958;2023-02-23T04:16:36;99711.06;;;9.40;90.06
17230;BME280;8731;50.364;8.958;2023-02-23T04:21:01;99713.34;;;9.37;89.92
17230;BME280;8731;50.364;8.958;2023-02-23T04:25:24;99704.81;;;9.36;90.19
17230;BME280;8731;50.364;8.958;2023-02-23T04:29:49;99707.22;;;9.35;90.52
17230;BME280;8731;50.364;8.958;2023-02-23T04:34:12;99718.53;;;9.38;89.85
17230;BME280;8731;50.364;8.958;2023-02-23T04:38:34;99717.66;;;9.38;90.43
17230;BME280;8731;50.364;8.958;2023-02-23T04:42:56;99719.16;;;9.36;90.55
17230;BME280;8731;50.364;8.958;2023-02-23T04:47:20;99720.19;;;9.38;90.38
17230;BME280;8731;50.364;8.958;2023-02-23T04:51:42;99720.34;;;9.39;90.81
17230;BME280;8731;50.364;8.958;2023-02-23T04:56:05;99712.72;;;9.39;90.63
17230;BME280;8731;50.364;8.958;2023-02-23T05:00:28;99713.59;;;9.40;91.02
17230;BME280;8731;50.364;8.958;2023-02-23T05:04:54;99716.91;;;9.39;91.35
17230;BME280;8731;50.364;8.958;2023-02-23T05:09:16;99714.22;;;9.37;91.85
17230;BME280;8731;50.364;8.958;2023-02-23T05:13:39;99710.94;;;9.38;91.76
17230;BME280;8731;50.364;8.958;2023-02-23T05:18:01;99717.16;;;9.42;92.07
17230;BME280;8731;50.364;8.958;2023-02-23T05:22:25;99721.22;;;9.40;91.67
17230;BME280;8731;50.364;8.958;2023-02-23T05:26:47;99717.16;;;9.42;92.18
17230;BME280;8731;50.364;8.958;2023-02-23T05:31:10;99718.94;;;9.43;92.20
17230;BME280;8731;50.364;8.958;2023-02-23T05:35:33;99718.50;;;9.47;92.20
17230;BME280;8731;50.364;8.958;2023-02-23T05:39:57;99722.06;;;9.49;92.16
17230;BME280;8731;50.364;8.958;2023-02-23T05:44:19;99719.53;;;9.49;92.86
17230;BME280;8731;50.364;8.958;2023-02-23T05:48:42;99726.38;;;9.50;92.95
17230;BME280;8731;50.364;8.958;2023-02-23T05:53:04;99727.16;;;9.49;93.92
17230;BME280;8731;50.364;8.958;2023-02-23T05:57:28;99721.94;;;9.47;94.11
17230;BME280;8731;50.364;8.958;2023-02-23T06:01:50;99728.03;;;9.49;94.24
17230;BME280;8731;50.364;8.958;2023-02-23T06:06:14;99726.53;;;9.51;94.79
17230;BME280;8731;50.364;8.958;2023-02-23T06:10:36;99730.84;;;9.52;94.46
17230;BME280;8731;50.364;8.958;2023-02-23T06:15:00;99735.19;;;9.53;95.02
17230;BME280;8731;50.364;8.958;2023-02-23T06:19:22;99738.59;;;9.54;95.43
17230;BME280;8731;50.364;8.958;2023-02-23T06:23:45;99736.34;;;9.57;95.54
17230;BME280;8731;50.364;8.958;2023-02-23T06:28:07;99741.28;;;9.56;95.70
17230;BME280;8731;50.364;8.958;2023-02-23T06:32:32;99738.47;;;9.52;96.73
17230;BME280;8731;50.364;8.958;2023-02-23T06:36:56;99746.84;;;9.51;96.91
17230;BME280;8731;50.364;8.958;2023-02-23T06:41:18;99739.63;;;9.56;96.40
17230;BME280;8731;50.364;8.958;2023-02-23T06:45:41;99749.03;;;9.57;96.62
17230;BME280;8731;50.364;8.958;2023-02-23T06:50:05;99748.28;;;9.58;95.99
17230;BME280;8731;50.364;8.958;2023-02-23T06:54:29;99768.00;;;9.61;96.91
17230;BME280;8731;50.364;8.958;2023-02-23T06:58:53;99761.41;;;9.63;98.20
17230;BME280;8731;50.364;8.958;2023-02-23T07:03:15;99767.50;;;9.65;97.55
17230;BME280;8731;50.364;8.958;2023-02-23T07:07:40;99767.84;;;9.59;98.21
17230;BME280;8731;50.364;8.958;2023-02-23T07:12:02;99766.69;;;9.56;99.52
17230;BME280;8731;50.364;8.958;2023-02-23T07:16:25;99771.16;;;9.58;99.57
17230;BME280;8731;50.364;8.958;2023-02-23T07:20:48;99773.84;;;9.60;98.87
17230;BME280;8731;50.364;8.958;2023-02-23T07:25:12;99780.69;;;9.61;98.69
17230;BME280;8731;50.364;8.958;2023-02-23T07:29:34;99773.47;;;9.65;98.50
17230;BME280;8731;50.364;8.958;2023-02-23T07:33:57;99772.09;;;9.69;97.63
17230;BME280;8731;50.364;8.958;2023-02-23T07:38:19;99777.47;;;9.72;97.59
17230;BME280;8731;50.364;8.958;2023-02-23T07:42:42;99783.72;;;9.75;97.84
17230;BME280;8731;50.364;8.958;2023-02-23T07:47:05;99777.75;;;9.75;99.35
17230;BME280;8731;50.364;8.958;2023-02-23T07:51:27;99774.72;;;9.79;99.47
17230;BME280;8731;50.364;8.958;2023-02-23T07:55:54;99782.22;;;9.77;98.90
17230;BME280;8731;50.364;8.958;2023-02-23T08:00:19;99784.81;;;9.88;99.41
17230;BME280;8731;50.364;8.958;2023-02-23T08:04:41;99781.78;;;9.92;99.41
17230;BME280;8731;50.364;8.958;2023-02-23T08:09:04;99787.06;;;10.03;99.00
17230;BME280;8731;50.364;8.958;2023-02-23T08:13:26;99786.06;;;10.11;98.87
17230;BME280;8731;50.364;8.958;2023-02-23T08:17:50;99791.44;;;10.14;98.96
17230;BME280;8731;50.364;8.958;2023-02-23T08:22:12;99796.94;;;10.19;98.70
17230;BME280;8731;50.364;8.958;2023-02-23T08:26:36;99800.81;;;10.24;98.91
17230;BME280;8731;50.364;8.958;2023-02-23T08:30:58;99801.84;;;10.26;98.67
17230;BME280;8731;50.364;8.958;2023-02-23T08:35:22;99804.38;;;10.26;99.64
17230;BME280;8731;50.364;8.958;2023-02-23T08:39:44;99803.25;;;10.33;99.82
17230;BME280;8731;50.364;8.958;2023-02-23T08:44:06;99797.50;;;10.25;99.68
17230;BME280;8731;50.364;8.958;2023-02-23T08:48:29;99804.25;;;10.25;99.65
17230;BME280;8731;50.364;8.958;2023-02-23T08:52:52;99800.84;;;10.34;99.97
17230;BME280;8731;50.364;8.958;2023-02-23T08:57:15;99805.31;;;10.37;100.00
17230;BME280;8731;50.364;8.958;2023-02-23T09:01:38;99801.38;;;10.40;99.88
17230;BME280;8731;50.364;8.958;2023-02-23T09:06:06;99808.66;;;10.46;100.00
17230;BME280;8731;50.364;8.958;2023-02-23T09:10:32;99808.06;;;10.30;100.00
17230;BME280;8731;50.364;8.958;2023-02-23T09:14:54;99810.59;;;10.49;100.00
17230;BME280;8731;50.364;8.958;2023-02-23T09:19:17;99820.41;;;10.54;100.00
17230;BME280;8731;50.364;8.958;2023-02-23T09:23:39;99820.66;;;10.57;100.00
17230;BME280;8731;50.364;8.958;2023-02-23T09:28:03;99813.16;;;10.59;100.00
17230;BME280;8731;50.364;8.958;2023-02-23T09:32:25;99814.94;;;10.60;100.00
17230;BME280;8731;50.364;8.958;2023-02-23T09:36:47;99820.06;;;10.70;100.00
17230;BME280;8731;50.364;8.958;2023-02-23T09:41:29;99827.97;;;10.73;100.00
17230;BME280;8731;50.364;8.958;2023-02-23T09:46:26;99827.72;;;10.80;100.00
17230;BME280;8731;50.364;8.958;2023-02-23T09:50:57;99830.75;;;10.66;100.00
17230;BME280;8731;50.364;8.958;2023-02-23T09:55:21;99834.72;;;10.83;100.00
17230;BME280;8731;50.364;8.958;2023-02-23T09:59:43;99834.53;;;10.90;100.00
17230;BME280;8731;50.364;8.958;2023-02-23T10:04:11;99832.75;;;10.99;100.00
17230;BME280;8731;50.364;8.958;2023-02-23T10:08:45;99842.44;;;11.03;100.00
17230;BME280;8731;50.364;8.958;2023-02-23T10:13:19;99838.59;;;11.08;100.00
17230;BME280;8731;50.364;8.958;2023-02-23T10:17:54;99843.47;;;11.15;100.00
17230;BME280;8731;50.364;8.958;2023-02-23T10:22:25;99841.81;;;11.16;100.00
17230;BME280;8731;50.364;8.958;2023-02-23T10:26:51;99845.41;;;11.28;100.00
17230;BME280;8731;50.364;8.958;2023-02-23T10:31:23;99841.56;;;11.33;100.00
17230;BME280;8731;50.364;8.958;2023-02-23T10:35:51;99848.72;;;11.37;100.00
17230;BME280;8731;50.364;8.958;2023-02-23T10:40:22;99853.44;;;11.43;100.00
17230;BME280;8731;50.364;8.958;2023-02-23T10:44:47;99852.78;;;11.35;100.00
17230;BME280;8731;50.364;8.958;2023-02-23T10:49:16;99852.31;;;11.39;100.00
17230;BME280;8731;50.364;8.958;2023-02-23T10:53:41;99848.22;;;11.51;100.00
17230;BME280;8731;50.364;8.958;2023-02-23T10:58:09;99849.88;;;11.51;100.00
17230;BME280;8731;50.364;8.958;2023-02-23T11:02:36;99841.47;;;11.62;100.00
17230;BME280;8731;50.364;8.958;2023-02-23T11:07:06;99837.63;;;11.77;100.00
17230;BME280;8731;50.364;8.958;2023-02-23T11:11:29;99832.50;;;11.77;98.68
17230;BME280;8731;50.364;8.958;2023-02-23T11:15:58;99830.56;;;12.05;100.00
17230;BME280;8731;50.364;8.958;2023-02-23T11:20:25;99826.06;;;12.23;99.02
17230;BME280;8731;50.364;8.958;2023-02-23T11:24:52;99820.84;;;12.32;97.33
17230;BME280;8731;50.364;8.958;2023-02-23T11:29:20;99818.22;;;12.42;96.99
17230;BME280;8731;50.364;8.958;2023-02-23T11:33:48;99824.03;;;12.61;97.50
17230;BME280;8731;50.364;8.958;2023-02-23T11:38:15;99813.72;;;12.81;96.33
17230;BME280;8731;50.364;8.958;2023-02-23T11:42:50;99826.28;;;12.68;95.17
17230;BME280;8731;50.364;8.958;2023-02-23T11:47:16;99805.38;;;12.84;95.67
17230;BME280;8731;50.364;8.958;2023-02-23T11:51:46;99809.47;;;13.04;94.08
17230;BME280;8731;50.364;8.958;2023-02-23T11:56:11;99810.06;;;12.89;93.77
17230;BME280;8731;50.364;8.958;2023-02-23T12:00:41;99805.84;;;13.12;93.05
17230;BME280;8731;50.364;8.958;2023-02-23T12:05:06;99791.50;;;13.14;92.17
17230;BME280;8731;50.364;8.958;2023-02-23T12:09:39;99791.50;;;13.14;92.48
17230;BME280;8731;50.364;8.958;2023-02-23T12:14:09;99788.66;;;13.55;91.64
17230;BME280;8731;50.364;8.958;2023-02-23T12:18:41;99779.91;;;13.98;89.47
17230;BME280;8731;50.364;8.958;2023-02-23T12:23:11;99781.78;;;14.24;88.60
17230;BME280;8731;50.364;8.958;2023-02-23T12:27:41;99778.41;;;14.60;87.80
17230;BME280;8731;50.364;8.958;2023-02-23T12:32:11;99777.66;;;14.49;86.17
17230;BME280;8731;50.364;8.958;2023-02-23T12:36:41;99776.16;;;14.64;85.91
17230;BME280;8731;50.364;8.958;2023-02-23T12:41:10;99774.53;;;14.30;86.02
17230;BME280;8731;50.364;8.958;2023-02-23T12:45:40;99778.31;;;14.35;85.36
17230;BME280;8731;50.364;8.958;2023-02-23T12:50:10;99777.09;;;14.30;85.19
17230;BME280;8731;50.364;8.958;2023-02-23T12:54:42;99775.66;;;14.22;85.04
17230;BME280;8731;50.364;8.958;2023-02-23T12:59:17;99768.09;;;14.11;85.43
17230;BME280;8731;50.364;8.958;2023-02-23T13:04:14;99776.47;;;13.97;85.62
17230;BME280;8731;50.364;8.958;2023-02-23T13:09:17;99768.00;;;13.75;86.67
17230;BME280;8731;50.364;8.958;2023-02-23T13:14:00;99764.84;;;13.67;86.25
17230;BME280;8731;50.364;8.958;2023-02-23T13:18:36;99768.53;;;13.59;86.71
17230;BME280;8731;50.364;8.958;2023-02-23T13:23:18;99759.38;;;13.39;87.50
17230;BME280;8731;50.364;8.958;2023-02-23T13:27:50;99762.47;;;13.35;87.81
17230;BME280;8731;50.364;8.958;2023-02-23T13:32:18;99759.81;;;13.34;87.92
17230;BME280;8731;50.364;8.958;2023-02-23T13:36:44;99762.31;;;13.22;88.86
17230;BME280;8731;50.364;8.958;2023-02-23T13:41:19;99760.06;;;13.15;88.50
17230;BME280;8731;50.364;8.958;2023-02-23T13:46:11;99765.72;;;13.11;88.44
17230;BME280;8731;50.364;8.958;2023-02-23T13:50:49;99756.47;;;13.01;89.05
17230;BME280;8731;50.364;8.958;2023-02-23T13:55:35;99762.22;;;12.99;89.88
17230;BME280;8731;50.364;8.958;2023-02-23T14:00:18;99759.44;;;12.96;89.56
17230;BME280;8731;50.364;8.958;2023-02-23T14:04:41;99762.75;;;12.95;89.68
17230;BME280;8731;50.364;8.958;2023-02-23T14:09:08;99765.56;;;12.76;90.42
17230;BME280;8731;50.364;8.958;2023-02-23T14:13:40;99765.09;;;12.91;90.61
17230;BME280;8731;50.364;8.958;2023-02-23T14:18:30;99763.75;;;12.97;90.44
17230;BME280;8731;50.364;8.958;2023-02-23T14:28:23;99761.59;;;12.79;89.32
17230;BME280;8731;50.364;8.958;2023-02-23T14:32:48;99771.16;;;12.82;87.90
17230;BME280;8731;50.364;8.958;2023-02-23T14:37:22;99768.00;;;12.74;86.50
17230;BME280;8731;50.364;8.958;2023-02-23T14:41:48;99766.28;;;12.85;85.78
17230;BME280;8731;50.364;8.958;2023-02-23T14:46:17;99771.81;;;12.79;85.50
17230;BME280;8731;50.364;8.958;2023-02-23T14:50:42;99768.63;;;12.94;85.49
17230;BME280;8731;50.364;8.958;2023-02-23T14:55:15;99772.16;;;12.62;84.40
17230;BME280;8731;50.364;8.958;2023-02-23T14:59:42;99771.03;;;12.80;84.56
17230;BME280;8731;50.364;8.958;2023-02-23T15:04:08;99771.81;;;12.79;84.80
17230;BME280;8731;50.364;8.958;2023-02-23T15:08:34;99776.94;;;12.79;85.32
17230;BME280;8731;50.364;8.958;2023-02-23T15:13:09;99776.53;;;12.97;85.37
17230;BME280;8731;50.364;8.958;2023-02-23T15:17:33;99781.88;;;13.00;85.72
17230;BME280;8731;50.364;8.958;2023-02-23T15:21:59;99790.94;;;12.84;83.89
17230;BME280;8731;50.364;8.958;2023-02-23T15:26:26;99785.63;;;12.93;84.25
17230;BME280;8731;50.364;8.958;2023-02-23T15:30:54;99792.84;;;12.87;84.10
17230;BME280;8731;50.364;8.958;2023-02-23T15:35:19;99786.84;;;12.86;83.81
17230;BME280;8731;50.364;8.958;2023-02-23T15:39:47;99794.50;;;12.86;83.28
17230;BME280;8731;50.364;8.958;2023-02-23T15:44:15;99788.28;;;12.83;82.83
17230;BME280;8731;50.364;8.958;2023-02-23T15:48:47;99781.84;;;12.88;82.09
17230;BME280;8731;50.364;8.958;2023-02-23T15:53:19;99787.63;;;12.85;82.18
17230;BME280;8731;50.364;8.958;2023-02-23T15:57:52;99782.50;;;12.85;81.67
17230;BME280;8731;50.364;8.958;2023-02-23T16:02:18;99784.06;;;12.83;81.81
17230;BME280;8731;50.364;8.958;2023-02-23T16:06:52;99790.41;;;12.88;81.42
17230;BME280;8731;50.364;8.958;2023-02-23T16:11:16;99787.50;;;12.84;82.22
17230;BME280;8731;50.364;8.958;2023-02-23T16:15:38;99788.28;;;12.83;82.65
17230;BME280;8731;50.364;8.958;2023-02-23T16:20:10;99784.47;;;12.78;81.98
17230;BME280;8731;50.364;8.958;2023-02-23T16:24:37;99795.69;;;12.58;81.78
17230;BME280;8731;50.364;8.958;2023-02-23T16:29:01;99795.19;;;12.52;81.90
17230;BME280;8731;50.364;8.958;2023-02-23T16:33:26;99795.84;;;12.49;81.54
